Time;durP1;ratioP1;P1;durP2;ratioP2;P2;SDS_P1;SDS_P2;PMS_P1;PMS_P2;Temp;Humidity;BMP_temperature;BMP_pressure;BME280_temperature;BME280_humidity;BME280_pressure;Samples;Min_cycle;Max_cycle;Signal;HPM_P1;HPM_P2
2021/11/03 00:04:26;;;;;;;19.63;11.60;;;;;;;7.77;100.00;99475.27;5239937;56;1141100;-77
2021/11/03 00:09:32;;;;;;;11.33;7.30;;;;;;;7.66;100.00;99477.92;5239595;56;1141096;-77
2021/11/03 00:14:39;;;;;;;19.57;12.33;;;;;;;7.63;100.00;99482.14;5239700;56;1139226;-76
2021/11/03 13:19:45;;;;;;;20.43;11.57;;;;;;;10.93;92.28;99727.75;5274285;54;46304;-82
2021/11/03 13:24:52;;;;;;;24.37;12.30;;;;;;;11.49;93.81;99734.87;5075160;57;1134964;-81
2021/11/03 13:30:03;;;;;;;16.80;10.77;;;;;;;11.82;91.75;99725.11;5116680;56;1139067;-79
2021/11/03 13:35:19;;;;;;;37.33;21.07;;;;;;;11.51;90.35;99724.50;5132278;57;1139019;-85
2021/11/03 13:40:29;;;;;;;40.23;25.97;;;;;;;11.28;90.66;99727.98;5104685;56;1138964;-80
2021/11/03 13:45:44;;;;;;;22.80;13.53;;;;;;;11.12;90.41;99731.70;5155731;57;1139041;-83
2021/11/03 13:50:54;;;;;;;18.13;11.27;;;;;;;11.20;90.76;99721.72;5125926;57;1136873;-84
2021/11/03 13:56:05;;;;;;;27.87;14.30;;;;;;;12.00;90.96;99725.66;5102909;57;1141061;-84
2021/11/03 14:01:15;;;;;;;29.12;18.73;;;;;;;12.80;89.97;99724.34;5112568;57;1141020;-90
2021/11/03 14:06:32;;;;;;;18.57;10.47;;;;;;;13.15;88.36;99723.48;5146368;57;1141207;-83
2021/11/03 14:11:39;;;;;;;20.90;12.67;;;;;;;12.82;87.25;99720.22;5155036;57;1141378;-84
2021/11/03 14:17:07;;;;;;;26.57;15.10;;;;;;;12.41;86.54;99715.00;5142060;57;1141111;-83
2021/11/03 14:22:17;;;;;;;21.53;12.87;;;;;;;12.15;87.33;99657.42;5097842;57;1141296;-87
2021/11/03 14:27:24;;;;;;;41.13;27.63;;;;;;;12.51;88.65;99716.63;5079524;58;1141237;-82
2021/11/03 14:32:32;;;;;;;33.00;20.13;;;;;;;13.22;85.40;99719.73;5014042;59;1141154;-83
2021/11/03 14:37:37;;;;;;;23.00;14.50;;;;;;;12.96;84.38;99717.02;4874537;59;1141144;-82
2021/11/03 14:42:43;;;;;;;17.63;12.00;;;;;;;12.66;84.52;99721.74;4902719;58;1141092;-81
2021/11/03 14:47:50;;;;;;;20.97;13.23;;;;;;;12.38;84.84;99724.09;5016189;58;1141109;-85
2021/11/03 14:53:01;;;;;;;26.43;17.53;;;;;;;12.11;84.77;99728.94;5024343;58;1141112;-82
2021/11/03 14:58:08;;;;;;;63.13;27.32;;;;;;;11.79;84.83;99723.23;5045024;58;1141215;-80
2021/11/03 15:03:38;;;;;;;76.83;27.17;;;;;;;11.49;85.08;99725.13;4971178;58;1141304;-86
2021/11/03 15:08:44;;;;;;;70.53;27.37;;;;;;;11.19;85.32;99722.69;5073256;58;1141087;-82
2021/11/03 15:13:50;;;;;;;64.13;27.23;;;;;;;10.99;85.77;99739.11;5092036;58;1141065;-80
2021/11/03 15:18:56;;;;;;;88.93;45.97;;;;;;;10.79;86.08;99741.41;5089596;57;1141239;-82
2021/11/03 15:24:01;;;;;;;114.93;53.43;;;;;;;10.54;86.06;99738.83;5110571;57;1141162;-82
2021/11/03 15:29:09;;;;;;;87.17;39.17;;;;;;;10.29;86.52;99733.55;5121427;57;1143315;-81
2021/11/03 15:34:22;;;;;;;58.03;21.13;;;;;;;10.17;86.63;99747.83;5143395;57;1141102;-81
2021/11/03 15:39:35;;;;;;;54.90;26.00;;;;;;;10.02;86.38;99745.20;5131642;57;1141128;-82
2021/11/03 15:44:45;;;;;;;44.27;21.83;;;;;;;9.82;86.85;99747.77;5046728;57;1138984;-86
2021/11/03 15:49:55;;;;;;;108.93;47.33;;;;;;;9.73;87.18;99745.11;4954186;58;1137176;-84
2021/11/03 15:55:01;;;;;;;49.07;25.43;;;;;;;9.52;86.97;99739.86;4902287;60;1139054;-86
2021/11/03 16:00:07;;;;;;;154.43;87.20;;;;;;;9.38;87.11;99751.59;4962576;59;1136978;-82
2021/11/03 16:05:28;;;;;;;114.40;60.77;;;;;;;9.34;87.58;99746.69;4975465;59;1139045;-82
2021/11/03 16:10:38;;;;;;;103.57;54.83;;;;;;;9.20;87.16;99739.95;4981706;59;1139121;-82
2021/11/03 16:15:46;;;;;;;27.30;12.97;;;;;;;9.06;87.55;99734.52;4981821;58;1139077;-84
2021/11/03 16:20:52;;;;;;;14.53;8.00;;;;;;;8.87;87.45;99726.94;4948370;58;1137573;-81
2021/11/03 16:25:58;;;;;;;22.80;11.67;;;;;;;8.66;86.89;99729.09;5022548;58;1134827;-85
2021/11/03 16:31:06;;;;;;;58.03;32.83;;;;;;;8.61;87.73;99725.98;4947257;58;1136477;-81
2021/11/03 16:36:16;;;;;;;96.67;41.17;;;;;;;8.64;88.33;99734.13;4982339;58;1137572;-82
2021/11/03 16:41:33;;;;;;;93.70;44.50;;;;;;;8.58;88.14;99734.61;4979148;58;1135271;-84
2021/11/03 16:46:40;;;;;;;107.12;50.80;;;;;;;8.58;88.14;99734.61;4967585;59;1139151;-81
2021/11/03 16:51:47;;;;;;;85.43;41.27;;;;;;;8.52;88.19;99737.28;4923985;60;1141086;-80
2021/11/03 16:56:54;;;;;;;83.37;35.53;;;;;;;8.43;87.80;99736.22;4875570;60;1139332;-81
2021/11/03 17:02:00;;;;;;;56.73;23.80;;;;;;;8.39;87.87;99738.77;4829995;60;1139043;-76
2021/11/03 17:07:07;;;;;;;35.43;17.90;;;;;;;8.25;87.28;99740.30;4880015;59;1138988;-76
2021/11/03 17:12:26;;;;;;;34.10;15.97;;;;;;;8.19;87.53;99733.39;4955804;58;1139004;-77
2021/11/03 17:17:31;;;;;;;84.57;41.67;;;;;;;8.05;87.58;99747.19;4920602;60;1139290;-76
2021/11/03 17:22:38;;;;;;;97.23;41.30;;;;;;;7.90;87.23;99745.77;4912611;59;1139086;-78
2021/11/03 17:27:49;;;;;;;106.17;50.80;;;;;;;7.90;87.23;99745.77;4880928;60;1139087;-78
2021/11/03 17:32:55;;;;;;;135.60;70.23;;;;;;;7.92;88.02;99753.55;4992003;59;1141290;-75
2021/11/03 17:38:01;;;;;;;131.47;60.40;;;;;;;7.94;88.31;99764.31;4975016;57;1141152;-77
2021/11/03 17:43:26;;;;;;;108.40;48.97;;;;;;;7.91;88.08;99762.40;5070607;57;1141188;-75
2021/11/03 17:48:36;;;;;;;115.52;50.23;;;;;;;7.86;87.91;99764.55;5075410;57;1138987;-77
2021/11/03 17:53:42;;;;;;;91.63;41.10;;;;;;;7.82;87.92;99767.89;5068364;56;1141148;-76
2021/11/03 17:58:48;;;;;;;105.07;42.67;;;;;;;7.84;87.70;99767.77;5097437;56;1139042;-77
2021/11/03 18:03:55;;;;;;;93.50;40.40;;;;;;;7.79;87.60;99766.00;5108914;57;1141191;-77
2021/11/03 18:09:01;;;;;;;68.20;32.70;;;;;;;7.73;87.75;99758.09;5111367;56;1139066;-76
2021/11/03 18:14:18;;;;;;;61.47;28.47;;;;;;;7.65;87.98;99773.63;5069795;57;1136733;-75
2021/11/03 18:19:30;;;;;;;55.53;25.00;;;;;;;7.60;88.08;99777.95;5066318;57;1137104;-78
2021/11/03 18:24:39;;;;;;;71.53;31.30;;;;;;;7.54;87.99;99776.25;5074493;57;1139132;-78
2021/11/03 18:30:03;;;;;;;1055.57;612.43;;;;;;;7.54;88.25;99777.56;5128931;56;1139047;-75
2021/11/03 18:35:09;;;;;;;1999.90;882.97;;;;;;;7.53;88.35;99778.05;5153976;56;1145308;-77
2021/11/03 18:40:18;;;;;;;530.47;308.70;;;;;;;7.55;88.72;99764.77;5149451;56;1143120;-78
2021/11/03 18:45:34;;;;;;;156.57;99.87;;;;;;;7.52;88.65;99757.11;5149092;56;1138931;-75
2021/11/03 18:50:45;;;;;;;218.93;102.73;;;;;;;7.50;88.48;99749.80;5154231;56;1139069;-77
2021/11/03 18:55:55;;;;;;;183.57;82.77;;;;;;;7.49;88.61;99744.18;5152408;56;1141112;-77
2021/11/03 19:01:05;;;;;;;105.33;44.13;;;;;;;7.49;88.81;99739.76;5137141;56;1139068;-76
2021/11/03 19:06:28;;;;;;;133.73;58.97;;;;;;;7.47;88.92;99739.06;5161456;56;1139308;-77
2021/11/03 19:11:36;;;;;;;108.90;54.87;;;;;;;7.44;89.15;99734.52;5135430;56;1137112;-76
2021/11/03 19:16:41;;;;;;;94.93;39.10;;;;;;;7.40;88.97;99724.22;5139290;56;1139108;-77
2021/11/03 19:21:51;;;;;;;70.30;31.63;;;;;;;7.38;89.10;99726.60;5054805;57;1137137;-75
2021/11/03 19:26:57;;;;;;;60.37;27.40;;;;;;;7.34;89.32;99725.16;5114931;56;1134907;-77
2021/11/03 19:32:05;;;;;;;45.33;23.60;;;;;;;7.30;89.59;99718.48;5118625;57;1259348;-77
2021/11/03 19:37:30;;;;;;;40.67;20.47;;;;;;;7.26;90.26;99708.66;5096094;56;1138956;-77
2021/11/03 19:42:36;;;;;;;56.73;26.23;;;;;;;7.26;90.26;99708.66;5141458;56;1139477;-76
2021/11/03 19:47:42;;;;;;;43.23;23.80;;;;;;;7.27;90.19;99708.19;5109915;57;1139040;-78
2021/11/03 19:52:48;;;;;;;45.07;23.40;;;;;;;7.30;90.44;99719.80;5162595;57;1139010;-78
2021/11/03 19:57:55;;;;;;;35.63;20.65;;;;;;;7.29;90.50;99721.58;5150032;57;1139051;-75
2021/11/03 20:03:01;;;;;;;39.80;20.40;;;;;;;7.26;90.71;99722.29;5169252;56;1139081;-76
2021/11/03 20:08:26;;;;;;;39.60;21.10;;;;;;;7.24;90.84;99722.88;5144838;56;1139184;-77
2021/11/03 20:13:37;;;;;;;44.07;21.47;;;;;;;7.22;91.00;99723.47;5166160;56;1139325;-76
2021/11/03 20:18:43;;;;;;;43.53;19.90;;;;;;;7.20;91.15;99725.38;5166244;56;1139108;-78
2021/11/03 20:23:49;;;;;;;42.83;21.90;;;;;;;7.22;91.03;99712.48;5151085;56;1139179;-78
2021/11/03 20:28:56;;;;;;;54.23;24.30;;;;;;;7.20;91.56;99702.55;5130416;57;1139426;-79
2021/11/03 20:34:03;;;;;;;45.83;22.27;;;;;;;7.21;91.41;99706.02;5130905;57;1139286;-78
2021/11/03 20:39:10;;;;;;;53.33;26.83;;;;;;;7.22;91.46;99702.43;5130240;57;1139005;-78
2021/11/03 20:44:15;;;;;;;52.97;22.47;;;;;;;7.24;91.28;99686.90;5127163;56;1139412;-76
2021/11/03 20:49:21;;;;;;;46.23;21.67;;;;;;;7.28;91.35;99708.08;5151551;56;1139026;-78
2021/11/03 20:54:27;;;;;;;45.37;21.33;;;;;;;7.27;91.47;99710.81;5151255;56;1139542;-78
2021/11/03 20:59:36;;;;;;;50.83;24.43;;;;;;;7.27;91.59;99701.61;5142709;56;1136861;-76
2021/11/03 21:04:41;;;;;;;46.60;21.73;;;;;;;7.30;91.43;99710.59;5140470;56;1139103;-78
2021/11/03 21:09:47;;;;;;;55.57;24.43;;;;;;;7.35;91.44;99703.16;5159297;56;1139022;-77
2021/11/03 21:14:54;;;;;;;48.70;25.40;;;;;;;7.37;91.56;99702.09;5144202;56;1139396;-77
2021/11/03 21:20:00;;;;;;;46.80;23.87;;;;;;;7.36;91.65;99696.47;5151079;56;1138932;-76
2021/11/03 21:25:07;;;;;;;45.37;23.17;;;;;;;7.37;91.68;99684.16;5122896;56;1139311;-76
2021/11/03 21:30:14;;;;;;;47.33;23.77;;;;;;;7.39;91.82;99693.61;5120926;56;1138960;-76
2021/11/03 21:35:22;;;;;;;47.70;25.27;;;;;;;7.37;91.89;99695.52;5119932;57;1139034;-77
2021/11/03 21:40:30;;;;;;;45.40;22.43;;;;;;;7.35;91.91;99696.58;5120587;57;1139071;-77
2021/11/03 21:45:37;;;;;;;46.53;22.57;;;;;;;7.34;91.85;99692.27;5129247;57;1139029;-75
2021/11/03 21:50:44;;;;;;;49.67;23.97;;;;;;;7.33;91.82;99689.31;5129391;56;1139297;-77
2021/11/03 21:55:50;;;;;;;54.93;26.60;;;;;;;7.35;91.92;99692.16;5128711;56;1139041;-75
2021/11/03 22:00:56;;;;;;;53.80;27.03;;;;;;;7.33;92.03;99690.13;5129229;57;1137179;-78
2021/11/03 22:06:02;;;;;;;51.27;24.80;;;;;;;7.29;92.16;99686.55;5129394;56;1137026;-78
2021/11/03 22:11:08;;;;;;;56.07;26.03;;;;;;;7.29;92.10;99686.08;5129671;56;1137191;-78
2021/11/03 22:16:14;;;;;;;51.97;25.50;;;;;;;7.30;92.02;99686.44;5129772;56;1137087;-76
2021/11/03 22:21:21;;;;;;;50.17;24.93;;;;;;;7.32;92.27;99687.64;5123835;56;1137025;-76
2021/11/03 22:26:27;;;;;;;45.10;23.90;;;;;;;7.32;92.42;99681.91;5143624;56;1137263;-76
2021/11/03 22:31:34;;;;;;;51.77;23.23;;;;;;;7.30;92.38;99679.03;5152192;56;1137611;-77
2021/11/03 22:36:39;;;;;;;46.47;23.50;;;;;;;7.28;92.28;99671.73;5151690;56;1137218;-77
2021/11/03 22:41:45;;;;;;;45.20;23.70;;;;;;;7.27;92.35;99665.63;5151442;56;1137215;-77
2021/11/03 22:46:51;;;;;;;48.53;24.20;;;;;;;7.30;92.57;99666.72;5151989;56;1137091;-76
2021/11/03 22:51:56;;;;;;;45.37;23.47;;;;;;;7.27;92.67;99676.62;5131288;57;1136908;-77
2021/11/03 22:57:04;;;;;;;42.43;21.30;;;;;;;7.27;92.71;99676.15;5131303;57;1136998;-77
2021/11/03 23:02:10;;;;;;;36.53;20.43;;;;;;;7.29;92.70;99662.41;5131176;57;1137236;-78
2021/11/03 23:07:16;;;;;;;52.53;22.67;;;;;;;7.30;92.79;99660.14;5131411;57;1137112;-76
2021/11/03 23:12:21;;;;;;;41.53;21.00;;;;;;;7.27;92.87;99672.68;5131385;57;1136963;-77
2021/11/03 23:17:27;;;;;;;41.93;22.50;;;;;;;7.25;93.00;99667.53;5131279;57;1137095;-76
2021/11/03 23:22:33;;;;;;;45.13;20.83;;;;;;;7.19;93.01;99664.05;5131210;57;1135009;-76
2021/11/03 23:27:40;;;;;;;36.90;20.67;;;;;;;7.17;92.84;99666.47;5129410;57;1137018;-78
2021/11/03 23:32:46;;;;;;;37.80;21.67;;;;;;;7.14;92.89;99666.70;5129052;57;1134854;-77
2021/11/03 23:37:52;;;;;;;43.53;21.60;;;;;;;7.18;93.30;99680.78;5129128;57;1135331;-76
2021/11/03 23:42:58;;;;;;;41.83;22.77;;;;;;;7.22;93.68;99645.41;5129209;57;1139189;-76
2021/11/03 23:48:05;;;;;;;41.30;20.77;;;;;;;7.22;93.68;99645.41;5129159;56;1139029;-77
2021/11/03 23:53:11;;;;;;;37.70;20.60;;;;;;;7.26;93.79;99639.45;5112154;57;1139066;-78
2021/11/03 23:58:17;;;;;;;36.00;20.60;;;;;;;7.28;93.77;99659.41;5129375;56;1138919;-77
